Time;durP1;ratioP1;P1;durP2;ratioP2;P2;SDS_P1;SDS_P2;PMS_P1;PMS_P2;Temp;Humidity;BMP_temperature;BMP_pressure;BME280_temperature;BME280_humidity;BME280_pressure;Samples;Min_cycle;Max_cycle;Signal;HPM_P1;HPM_P2
2021/12/24 00:02:14;;;;;;;;;;;7.10;93.70;;;;;;4967659;28;19906;-73
2021/12/24 00:04:40;;;;;;;;;;;7.20;93.70;;;;;;4967061;28;19950;-74
2021/12/24 00:07:06;;;;;;;;;;;7.20;93.60;;;;;;4967518;28;19906;-73
2021/12/24 00:09:33;;;;;;;;;;;7.20;93.40;;;;;;4967124;28;19906;-73
2021/12/24 00:12:02;;;;;;;;;;;7.20;93.40;;;;;;4967407;28;19906;-74
2021/12/24 00:14:30;;;;;;;;;;;7.10;93.60;;;;;;4981832;28;20006;-73
2021/12/24 00:17:00;;;;;;;;;;;7.10;93.70;;;;;;4967420;28;19950;-73
2021/12/24 00:19:41;;;;;;;;;;;7.20;93.60;;;;;;4967031;28;19957;-73
2021/12/24 00:35:45;;;;;;;;;;;7.30;93.50;;;;;;4967302;29;20112;-73
2021/12/24 00:38:11;;;;;;;;;;;7.30;93.50;;;;;;4964089;28;19918;-73
2021/12/24 00:40:39;;;;;;;;;;;7.40;93.40;;;;;;4947197;29;19911;-73
2021/12/24 00:43:04;;;;;;;;;;;7.40;93.40;;;;;;4947792;29;19913;-73
2021/12/24 00:45:32;;;;;;;;;;;7.40;93.40;;;;;;4947610;28;19907;-72
2021/12/24 00:47:58;;;;;;;;;;;7.40;93.40;;;;;;4946596;29;19907;-73
2021/12/24 00:50:26;;;;;;;;;;;7.40;93.50;;;;;;4947407;29;19906;-73
2021/12/24 00:52:58;;;;;;;;;;;7.50;93.40;;;;;;4946838;29;20238;-73
2021/12/24 00:55:26;;;;;;;;;;;7.50;93.50;;;;;;4946876;29;19962;-72
2021/12/24 00:57:53;;;;;;;;;;;7.40;93.60;;;;;;4947502;29;19914;-74
2021/12/24 01:00:22;;;;;;;;;;;7.40;93.50;;;;;;4947289;29;19910;-73
2021/12/24 01:02:48;;;;;;;;;;;7.50;93.60;;;;;;4953747;29;19962;-73
2021/12/24 01:05:13;;;;;;;;;;;7.40;93.70;;;;;;4966118;28;19906;-73
2021/12/24 01:07:39;;;;;;;;;;;7.50;93.80;;;;;;4981517;28;20201;-74
2021/12/24 01:10:06;;;;;;;;;;;7.50;93.90;;;;;;4965894;28;20105;-74
2021/12/24 01:12:31;;;;;;;;;;;7.60;94.00;;;;;;4966157;28;20109;-73
2021/12/24 01:14:57;;;;;;;;;;;7.60;93.90;;;;;;4981049;28;19941;-73
2021/12/24 01:19:56;;;;;;;;;;;7.60;94.00;;;;;;4980468;28;19992;-73
2021/12/24 01:25:05;;;;;;;;;;;7.60;94.10;;;;;;4965775;28;19962;-73
2021/12/24 01:37:50;;;;;;;;;;;7.60;94.10;;;;;;4965991;28;20193;-73
2021/12/24 01:38:25;;;;;;;;;;;7.80;94.10;;;;;;4965720;29;19945;-73
2021/12/24 01:43:17;;;;;;;;;;;7.60;94.50;;;;;;4981094;28;19933;-72
2021/12/24 01:45:46;;;;;;;;;;;7.70;94.60;;;;;;4980274;28;19913;-72
2021/12/24 01:48:12;;;;;;;;;;;7.70;94.70;;;;;;4980592;28;20193;-72
2021/12/24 01:50:38;;;;;;;;;;;7.60;94.90;;;;;;4962826;28;19929;-71
2021/12/24 01:53:05;;;;;;;;;;;7.70;95.00;;;;;;4964235;29;19906;-70
2021/12/24 01:55:31;;;;;;;;;;;7.70;94.80;;;;;;4965087;28;19906;-70
2021/12/24 01:57:57;;;;;;;;;;;7.70;94.90;;;;;;4965447;29;19906;-70
2021/12/24 02:00:27;;;;;;;;;;;7.70;95.10;;;;;;4965114;28;19917;-68
2021/12/24 02:02:53;;;;;;;;;;;7.70;95.10;;;;;;4964961;28;19929;-69
2021/12/24 02:05:19;;;;;;;;;;;7.70;95.10;;;;;;4953605;28;20228;-71
2021/12/24 02:07:45;;;;;;;;;;;7.60;95.10;;;;;;4954328;29;20202;-69
2021/12/24 02:10:13;;;;;;;;;;;7.70;95.20;;;;;;4954968;29;19953;-71
2021/12/24 02:12:38;;;;;;;;;;;7.70;95.30;;;;;;4956098;29;19994;-69
2021/12/24 02:15:08;;;;;;;;;;;7.80;95.20;;;;;;4957953;29;20208;-70
2021/12/24 02:28:45;;;;;;;;;;;7.80;95.00;;;;;;4956751;29;19973;-73
2021/12/24 02:31:19;;;;;;;;;;;7.80;94.90;;;;;;4951174;29;20177;-72
2021/12/24 02:33:45;;;;;;;;;;;7.80;94.90;;;;;;4959596;29;19906;-73
2021/12/24 02:36:11;;;;;;;;;;;7.80;94.80;;;;;;4964832;28;19913;-72
2021/12/24 02:38:36;;;;;;;;;;;7.80;94.60;;;;;;4964850;28;19906;-71
2021/12/24 02:41:03;;;;;;;;;;;7.80;94.60;;;;;;4964349;28;19911;-71
2021/12/24 02:43:29;;;;;;;;;;;7.80;94.60;;;;;;4964833;28;20145;-72
2021/12/24 02:45:58;;;;;;;;;;;7.80;94.50;;;;;;4964560;28;19984;-71
2021/12/24 02:48:59;;;;;;;;;;;7.90;94.30;;;;;;4979108;28;20082;-73
2021/12/24 02:54:07;;;;;;;;;;;7.90;94.10;;;;;;4977459;28;19916;-74
2021/12/24 02:56:35;;;;;;;;;;;8.00;93.80;;;;;;4964421;28;19933;-73
2021/12/24 02:59:11;;;;;;;;;;;8.10;93.70;;;;;;4964518;28;19906;-74
2021/12/24 03:01:37;;;;;;;;;;;8.10;93.70;;;;;;4979441;28;19906;-73
2021/12/24 03:04:04;;;;;;;;;;;8.10;93.60;;;;;;4965100;28;19915;-73
2021/12/24 03:06:32;;;;;;;;;;;8.10;93.60;;;;;;4979444;28;20108;-72
2021/12/24 03:08:58;;;;;;;;;;;8.10;93.40;;;;;;4979059;28;19906;-73
2021/12/24 03:11:24;;;;;;;;;;;8.10;93.50;;;;;;4964308;28;19913;-73
2021/12/24 03:13:50;;;;;;;;;;;8.10;93.50;;;;;;4979665;28;19906;-74
2021/12/24 03:16:16;;;;;;;;;;;8.10;93.40;;;;;;4982465;28;19907;-73
2021/12/24 03:18:43;;;;;;;;;;;8.10;93.50;;;;;;4968371;28;19914;-73
2021/12/24 03:26:04;;;;;;;;;;;8.10;93.40;;;;;;4967505;28;20185;-73
2021/12/24 03:28:29;;;;;;;;;;;8.10;93.40;;;;;;4968006;28;19913;-73
2021/12/24 03:30:55;;;;;;;;;;;8.20;93.30;;;;;;4968042;28;19976;-73
2021/12/24 03:33:20;;;;;;;;;;;8.20;93.40;;;;;;4967509;28;19906;-72
2021/12/24 03:35:46;;;;;;;;;;;8.20;93.40;;;;;;4966518;28;19918;-72
2021/12/24 03:38:12;;;;;;;;;;;8.20;93.50;;;;;;4968025;28;19910;-72
2021/12/24 03:40:37;;;;;;;;;;;8.20;93.60;;;;;;4967091;28;20252;-72
2021/12/24 03:43:03;;;;;;;;;;;8.30;93.70;;;;;;4967858;28;19914;-72
2021/12/24 03:45:49;;;;;;;;;;;8.30;93.80;;;;;;4967539;28;19913;-71
2021/12/24 03:48:20;;;;;;;;;;;8.40;93.80;;;;;;4966646;28;19906;-71
2021/12/24 03:56:01;;;;;;;;;;;8.40;93.70;;;;;;4967476;29;19913;-72
2021/12/24 03:58:27;;;;;;;;;;;8.50;93.80;;;;;;4967679;28;19937;-72
2021/12/24 04:00:53;;;;;;;;;;;8.50;93.80;;;;;;4967962;28;19934;-71
2021/12/24 04:03:18;;;;;;;;;;;8.50;93.80;;;;;;4967557;28;19977;-72
2021/12/24 04:05:44;;;;;;;;;;;8.40;93.90;;;;;;4967155;28;19913;-71
2021/12/24 04:08:10;;;;;;;;;;;8.50;93.60;;;;;;4982539;28;20197;-71
2021/12/24 04:10:41;;;;;;;;;;;8.50;93.70;;;;;;4966944;28;19941;-71
2021/12/24 04:13:08;;;;;;;;;;;8.50;93.60;;;;;;4968076;28;19966;-71
2021/12/24 04:15:34;;;;;;;;;;;8.60;93.40;;;;;;4967231;28;19906;-72
2021/12/24 04:18:00;;;;;;;;;;;8.60;93.40;;;;;;4967280;28;20235;-72
2021/12/24 04:25:54;;;;;;;;;;;8.50;94.30;;;;;;4966614;28;19969;-71
2021/12/24 04:28:19;;;;;;;;;;;8.40;94.60;;;;;;4966804;28;20197;-72
2021/12/24 04:30:50;;;;;;;;;;;8.30;94.60;;;;;;4966913;28;19969;-71
2021/12/24 04:33:26;;;;;;;;;;;8.30;94.50;;;;;;4966459;28;19977;-71
2021/12/24 04:38:56;;;;;;;;;;;8.40;94.20;;;;;;4967905;28;19913;-72
2021/12/24 05:03:27;;;;;;;;;;;8.40;93.50;;;;;;4966180;29;20219;-73
2021/12/24 05:06:05;;;;;;;;;;;8.40;93.40;;;;;;4965818;28;20221;-73
2021/12/24 05:08:39;;;;;;;;;;;8.40;93.50;;;;;;4966197;28;19907;-72
2021/12/24 05:11:10;;;;;;;;;;;8.50;93.40;;;;;;4966120;28;20178;-72
2021/12/24 05:13:36;;;;;;;;;;;8.40;93.50;;;;;;4965708;28;19907;-72
2021/12/24 05:16:13;;;;;;;;;;;8.40;93.50;;;;;;4980760;28;20203;-72
2021/12/24 05:21:32;;;;;;;;;;;8.40;93.50;;;;;;4965631;28;19918;-73
2021/12/24 05:21:42;;;;;;;;;;;8.50;93.50;;;;;;4965453;28;19922;-73
2021/12/24 05:24:15;;;;;;;;;;;8.40;93.60;;;;;;4965911;28;19929;-73
2021/12/24 05:26:42;;;;;;;;;;;8.40;93.50;;;;;;4966337;28;20030;-72
2021/12/24 05:29:08;;;;;;;;;;;8.40;93.60;;;;;;4965937;28;19913;-72
2021/12/24 05:31:33;;;;;;;;;;;8.40;93.70;;;;;;4966064;28;20135;-72
2021/12/24 05:33:59;;;;;;;;;;;8.40;93.80;;;;;;4965191;28;19946;-72
2021/12/24 05:36:26;;;;;;;;;;;8.40;93.80;;;;;;4967108;28;19919;-72
2021/12/24 05:38:51;;;;;;;;;;;8.40;93.90;;;;;;4965570;28;19990;-71
2021/12/24 05:41:23;;;;;;;;;;;8.40;94.00;;;;;;4965695;28;19953;-71
2021/12/24 05:43:49;;;;;;;;;;;8.40;94.00;;;;;;4965873;28;19906;-71
2021/12/24 05:46:15;;;;;;;;;;;8.40;94.00;;;;;;4980394;28;19913;-71
2021/12/24 05:48:41;;;;;;;;;;;8.40;94.10;;;;;;4965280;28;19977;-73
2021/12/24 05:51:06;;;;;;;;;;;8.30;94.10;;;;;;4965363;28;20201;-72
2021/12/24 05:53:32;;;;;;;;;;;8.30;94.10;;;;;;4965536;28;19906;-72
2021/12/24 05:55:58;;;;;;;;;;;8.30;94.20;;;;;;4965997;28;20105;-73
2021/12/24 05:58:24;;;;;;;;;;;8.40;94.10;;;;;;4966252;28;19973;-72
2021/12/24 06:00:49;;;;;;;;;;;8.30;94.10;;;;;;4965669;28;19910;-72
2021/12/24 06:03:15;;;;;;;;;;;8.40;94.20;;;;;;4965535;28;20053;-72
2021/12/24 06:05:41;;;;;;;;;;;8.40;94.20;;;;;;4980808;28;20160;-72
2021/12/24 06:08:07;;;;;;;;;;;8.30;94.20;;;;;;4980893;28;19906;-72
2021/12/24 06:10:33;;;;;;;;;;;8.40;94.10;;;;;;4965560;28;19922;-72
2021/12/24 06:12:59;;;;;;;;;;;8.40;94.20;;;;;;4965821;28;19948;-72
2021/12/24 06:15:26;;;;;;;;;;;8.40;94.30;;;;;;4980112;28;19938;-73
2021/12/24 06:17:55;;;;;;;;;;;8.40;94.20;;;;;;4980686;28;19914;-72
2021/12/24 06:20:21;;;;;;;;;;;8.40;94.20;;;;;;4980445;28;19914;-72
2021/12/24 06:22:47;;;;;;;;;;;8.40;94.30;;;;;;4965689;28;19910;-72
2021/12/24 06:25:14;;;;;;;;;;;8.50;94.20;;;;;;4965539;28;19929;-71
2021/12/24 06:27:39;;;;;;;;;;;8.40;94.10;;;;;;4966032;28;20014;-73
2021/12/24 06:30:06;;;;;;;;;;;8.40;94.30;;;;;;4980777;28;19906;-73
2021/12/24 06:32:32;;;;;;;;;;;8.40;94.20;;;;;;4980445;28;19907;-72
2021/12/24 06:34:57;;;;;;;;;;;8.30;94.30;;;;;;4965197;28;19906;-71
2021/12/24 06:37:23;;;;;;;;;;;8.30;94.40;;;;;;4965057;28;19906;-72
2021/12/24 06:39:49;;;;;;;;;;;8.40;94.30;;;;;;4964789;28;20241;-72
2021/12/24 06:42:14;;;;;;;;;;;8.40;94.40;;;;;;4959724;28;19916;-72
2021/12/24 06:44:40;;;;;;;;;;;8.30;94.50;;;;;;4964571;29;19926;-71
2021/12/24 06:47:06;;;;;;;;;;;8.30;94.60;;;;;;4964796;29;19906;-71
2021/12/24 06:49:32;;;;;;;;;;;8.20;94.70;;;;;;4965879;28;19906;-70
2021/12/24 06:51:57;;;;;;;;;;;8.30;94.70;;;;;;4986066;28;19907;-70
2021/12/24 06:54:23;;;;;;;;;;;8.30;94.70;;;;;;4970869;28;19906;-71
2021/12/24 06:56:50;;;;;;;;;;;8.30;94.70;;;;;;4971225;28;20228;-70
2021/12/24 06:59:15;;;;;;;;;;;8.30;94.60;;;;;;4970841;29;19945;-72
2021/12/24 07:01:41;;;;;;;;;;;8.30;94.70;;;;;;4970282;28;19973;-72
2021/12/24 07:04:07;;;;;;;;;;;8.20;94.80;;;;;;4970770;28;19907;-72
2021/12/24 07:06:33;;;;;;;;;;;8.20;95.10;;;;;;4971086;28;20082;-71
2021/12/24 07:08:58;;;;;;;;;;;8.20;94.90;;;;;;4970979;28;19944;-71
2021/12/24 07:11:24;;;;;;;;;;;8.20;94.90;;;;;;4983050;28;20113;-70
2021/12/24 07:13:51;;;;;;;;;;;8.20;94.90;;;;;;4970641;28;19925;-70
2021/12/24 07:16:16;;;;;;;;;;;8.20;94.90;;;;;;4951072;29;19914;-73
2021/12/24 07:18:42;;;;;;;;;;;8.20;94.90;;;;;;4959489;28;19951;-74
2021/12/24 07:21:08;;;;;;;;;;;8.20;94.80;;;;;;4950377;28;20402;-74
2021/12/24 07:23:34;;;;;;;;;;;8.20;94.90;;;;;;4966471;28;20259;-74
2021/12/24 07:26:00;;;;;;;;;;;8.20;94.90;;;;;;4968985;28;19906;-74
2021/12/24 07:28:25;;;;;;;;;;;8.20;94.90;;;;;;4985652;28;19914;-74
2021/12/24 07:30:51;;;;;;;;;;;8.20;95.20;;;;;;4970290;28;19910;-74
2021/12/24 07:33:17;;;;;;;;;;;8.20;94.90;;;;;;4968965;29;19929;-74
2021/12/24 07:35:43;;;;;;;;;;;8.20;95.00;;;;;;4968801;28;19934;-75
2021/12/24 07:38:09;;;;;;;;;;;8.20;95.00;;;;;;4970856;28;19910;-74
2021/12/24 07:40:36;;;;;;;;;;;8.20;95.00;;;;;;4985398;28;19910;-74
2021/12/24 07:43:02;;;;;;;;;;;8.20;95.00;;;;;;4984692;28;20143;-74
2021/12/24 07:45:27;;;;;;;;;;;8.20;95.00;;;;;;4974145;28;19926;-74
2021/12/24 07:48:13;;;;;;;;;;;8.20;95.00;;;;;;4951575;29;19907;-74
2021/12/24 07:53:10;;;;;;;;;;;8.20;95.10;;;;;;4950399;29;19930;-74
2021/12/24 07:55:36;;;;;;;;;;;8.10;95.40;;;;;;4954773;29;19910;-73
2021/12/24 07:58:03;;;;;;;;;;;8.10;95.30;;;;;;4961832;28;19910;-72
2021/12/24 08:00:28;;;;;;;;;;;8.10;95.40;;;;;;4970264;28;19933;-72
2021/12/24 08:02:55;;;;;;;;;;;8.10;95.50;;;;;;4966555;29;19906;-73
2021/12/24 08:05:23;;;;;;;;;;;8.10;95.60;;;;;;4965525;29;20000;-73
2021/12/24 08:07:49;;;;;;;;;;;8.10;95.60;;;;;;4981859;28;19914;-73
2021/12/24 08:10:15;;;;;;;;;;;8.10;95.60;;;;;;4981893;28;19906;-71
2021/12/24 08:12:41;;;;;;;;;;;8.10;95.70;;;;;;4966931;28;19907;-72
2021/12/24 08:15:07;;;;;;;;;;;8.10;95.70;;;;;;4965368;29;19953;-71
2021/12/24 08:17:33;;;;;;;;;;;8.10;95.80;;;;;;4965399;29;19907;-72
2021/12/24 08:19:59;;;;;;;;;;;8.10;95.90;;;;;;4967637;28;19993;-70
2021/12/24 08:22:25;;;;;;;;;;;8.00;95.90;;;;;;4982551;28;19910;-72
2021/12/24 08:24:50;;;;;;;;;;;8.00;96.10;;;;;;4965972;28;19930;-72
2021/12/24 08:27:16;;;;;;;;;;;7.90;96.40;;;;;;4966053;29;20116;-71
2021/12/24 08:29:42;;;;;;;;;;;7.90;96.70;;;;;;4966941;28;19906;-72
2021/12/24 08:32:08;;;;;;;;;;;7.90;96.90;;;;;;4981778;28;19906;-72
2021/12/24 08:34:34;;;;;;;;;;;7.90;97.10;;;;;;4966150;28;19921;-71
2021/12/24 08:37:00;;;;;;;;;;;7.80;97.30;;;;;;4966938;28;19961;-71
2021/12/24 08:39:25;;;;;;;;;;;7.80;97.30;;;;;;4965401;28;19997;-71
2021/12/24 08:41:54;;;;;;;;;;;7.80;97.40;;;;;;4966436;28;19928;-69
2021/12/24 08:44:25;;;;;;;;;;;7.80;97.40;;;;;;4965670;28;19912;-72
2021/12/24 08:46:51;;;;;;;;;;;7.80;97.50;;;;;;4966381;28;19907;-70
2021/12/24 08:49:17;;;;;;;;;;;7.80;97.40;;;;;;4963538;28;20172;-69
2021/12/24 08:51:42;;;;;;;;;;;7.80;97.40;;;;;;4947284;29;20121;-70
2021/12/24 08:54:08;;;;;;;;;;;7.80;97.40;;;;;;4948570;29;19914;-69
2021/12/24 08:56:34;;;;;;;;;;;7.80;97.30;;;;;;4965870;28;19972;-69
2021/12/24 08:58:59;;;;;;;;;;;7.80;97.30;;;;;;4966138;28;19910;-69
2021/12/24 09:01:25;;;;;;;;;;;7.80;97.30;;;;;;4965720;28;20094;-69
2021/12/24 09:03:51;;;;;;;;;;;7.80;97.20;;;;;;4966134;28;20014;-69
2021/12/24 09:06:16;;;;;;;;;;;7.80;97.20;;;;;;4965376;28;19906;-69
2021/12/24 09:08:44;;;;;;;;;;;7.80;97.30;;;;;;4966632;28;20397;-69
2021/12/24 09:11:10;;;;;;;;;;;7.80;97.40;;;;;;4965899;28;20201;-69
2021/12/24 09:13:36;;;;;;;;;;;7.70;97.20;;;;;;4964595;28;19929;-68
2021/12/24 09:16:02;;;;;;;;;;;7.80;97.00;;;;;;4965333;28;19937;-69
2021/12/24 09:18:27;;;;;;;;;;;7.80;96.90;;;;;;4965246;28;19906;-69
2021/12/24 09:20:55;;;;;;;;;;;7.80;96.80;;;;;;4959930;28;19914;-69
2021/12/24 09:23:21;;;;;;;;;;;7.80;96.90;;;;;;4957557;29;20287;-68
2021/12/24 09:25:47;;;;;;;;;;;7.90;96.70;;;;;;4962101;29;20231;-69
2021/12/24 09:28:13;;;;;;;;;;;7.90;96.60;;;;;;4962833;29;19945;-69
2021/12/24 09:30:38;;;;;;;;;;;7.80;96.50;;;;;;4947836;29;20205;-68
2021/12/24 09:33:04;;;;;;;;;;;7.90;96.30;;;;;;4951109;29;20018;-69
2021/12/24 09:35:30;;;;;;;;;;;7.90;96.40;;;;;;4964601;28;19930;-69
2021/12/24 09:37:55;;;;;;;;;;;7.80;96.30;;;;;;4965615;28;19906;-68
2021/12/24 09:40:21;;;;;;;;;;;7.90;96.30;;;;;;4964596;28;20228;-69
2021/12/24 09:42:47;;;;;;;;;;;8.00;96.10;;;;;;4965412;28;19910;-69
2021/12/24 09:45:13;;;;;;;;;;;7.90;96.20;;;;;;4963825;28;20202;-68
2021/12/24 09:47:39;;;;;;;;;;;7.90;96.20;;;;;;4980565;28;19906;-68
2021/12/24 09:50:06;;;;;;;;;;;7.90;96.10;;;;;;4964430;28;19906;-69
2021/12/24 09:52:32;;;;;;;;;;;7.90;96.20;;;;;;4959173;28;19954;-69
2021/12/24 09:55:08;;;;;;;;;;;7.90;96.10;;;;;;4946992;29;19958;-69
2021/12/24 09:57:33;;;;;;;;;;;7.90;96.10;;;;;;4980089;28;19910;-69
2021/12/24 09:59:59;;;;;;;;;;;8.00;95.90;;;;;;4964814;28;20176;-69
2021/12/24 10:02:28;;;;;;;;;;;8.10;95.80;;;;;;4964780;28;20109;-68
2021/12/24 10:04:54;;;;;;;;;;;8.10;95.50;;;;;;4963922;29;20117;-69
2021/12/24 10:07:24;;;;;;;;;;;8.10;95.60;;;;;;4963522;28;19969;-69
2021/12/24 10:09:50;;;;;;;;;;;8.10;95.50;;;;;;4963403;28;20205;-69
2021/12/24 10:12:24;;;;;;;;;;;8.10;95.50;;;;;;4961989;28;19928;-69
2021/12/24 10:14:57;;;;;;;;;;;8.00;95.60;;;;;;4949977;29;19910;-69
2021/12/24 10:17:32;;;;;;;;;;;8.00;95.60;;;;;;4960449;29;20101;-68
2021/12/24 10:20:00;;;;;;;;;;;8.10;95.60;;;;;;4965085;28;19910;-69
2021/12/24 10:22:26;;;;;;;;;;;8.00;95.70;;;;;;4958497;28;19917;-68
2021/12/24 10:25:05;;;;;;;;;;;8.00;95.70;;;;;;4961244;28;19934;-68
2021/12/24 10:27:32;;;;;;;;;;;8.00;95.80;;;;;;4964908;28;19913;-68
2021/12/24 10:29:58;;;;;;;;;;;8.00;95.90;;;;;;4961073;28;20211;-68
2021/12/24 10:32:24;;;;;;;;;;;8.00;95.90;;;;;;4945383;29;19907;-68
2021/12/24 10:34:49;;;;;;;;;;;8.00;95.80;;;;;;4950767;29;19921;-68
2021/12/24 10:37:18;;;;;;;;;;;7.90;95.80;;;;;;4964602;28;19914;-68
2021/12/24 10:39:53;;;;;;;;;;;7.90;95.90;;;;;;4964741;28;19910;-67
2021/12/24 10:42:20;;;;;;;;;;;7.90;96.00;;;;;;4964573;28;19906;-67
2021/12/24 10:44:48;;;;;;;;;;;7.90;95.80;;;;;;4964377;28;19929;-68
2021/12/24 10:47:27;;;;;;;;;;;8.00;95.80;;;;;;4964626;28;19907;-68
2021/12/24 10:50:29;;;;;;;;;;;8.00;95.70;;;;;;4979061;28;19906;-68
2021/12/24 10:55:30;;;;;;;;;;;8.20;95.30;;;;;;4964521;28;19921;-68
2021/12/24 10:57:57;;;;;;;;;;;8.30;95.10;;;;;;4964623;28;19907;-68
2021/12/24 11:00:36;;;;;;;;;;;8.20;95.00;;;;;;4964714;28;19933;-68
2021/12/24 11:03:19;;;;;;;;;;;8.20;95.10;;;;;;4963340;28;19906;-68
2021/12/24 11:05:46;;;;;;;;;;;8.30;95.10;;;;;;4981312;28;19910;-68
2021/12/24 11:08:17;;;;;;;;;;;8.30;95.10;;;;;;4964207;28;19906;-68
2021/12/24 11:10:54;;;;;;;;;;;8.40;95.10;;;;;;4979612;28;19948;-68
2021/12/24 11:13:28;;;;;;;;;;;8.40;95.10;;;;;;4979338;28;19937;-68
2021/12/24 11:15:54;;;;;;;;;;;8.50;95.10;;;;;;4963126;28;19922;-71
2021/12/24 11:18:20;;;;;;;;;;;8.50;94.90;;;;;;4963314;28;19906;-68
2021/12/24 11:20:50;;;;;;;;;;;8.50;94.70;;;;;;4963860;28;19911;-68
2021/12/24 11:23:16;;;;;;;;;;;8.60;94.70;;;;;;4982210;28;19977;-68
2021/12/24 11:25:49;;;;;;;;;;;8.60;94.70;;;;;;4970591;28;20194;-68
2021/12/24 11:28:16;;;;;;;;;;;8.50;94.70;;;;;;4964307;28;19977;-68
2021/12/24 11:30:49;;;;;;;;;;;8.50;94.80;;;;;;4979008;28;19929;-68
2021/12/24 11:33:17;;;;;;;;;;;8.50;95.00;;;;;;4964320;28;19934;-68
2021/12/24 11:35:46;;;;;;;;;;;8.50;95.10;;;;;;4963707;28;19948;-69
2021/12/24 11:38:17;;;;;;;;;;;8.50;95.50;;;;;;4982874;28;19906;-69
2021/12/24 11:40:44;;;;;;;;;;;8.50;95.30;;;;;;4967572;28;19910;-69
2021/12/24 11:43:10;;;;;;;;;;;8.50;95.40;;;;;;4967313;28;19912;-68
2021/12/24 11:45:36;;;;;;;;;;;8.50;95.40;;;;;;4979077;28;19913;-69
2021/12/24 11:48:02;;;;;;;;;;;8.50;95.40;;;;;;4965800;29;19907;-69
2021/12/24 11:50:28;;;;;;;;;;;8.40;95.60;;;;;;4967427;28;20245;-70
2021/12/24 11:52:56;;;;;;;;;;;8.40;95.60;;;;;;4966722;28;19940;-69
2021/12/24 11:55:22;;;;;;;;;;;8.40;95.60;;;;;;4965532;29;19906;-69
2021/12/24 11:57:59;;;;;;;;;;;8.40;95.70;;;;;;4981626;28;19981;-69
2021/12/24 12:00:28;;;;;;;;;;;8.30;95.80;;;;;;4982248;28;19910;-69
2021/12/24 12:02:54;;;;;;;;;;;8.30;95.90;;;;;;4966733;28;20112;-69
2021/12/24 12:05:32;;;;;;;;;;;8.30;95.90;;;;;;4966817;28;19906;-70
2021/12/24 12:08:25;;;;;;;;;;;8.20;96.10;;;;;;4981098;28;20105;-69
2021/12/24 12:11:01;;;;;;;;;;;8.20;96.20;;;;;;4967120;28;19953;-69
2021/12/24 12:13:45;;;;;;;;;;;8.10;96.60;;;;;;4966719;28;20141;-69
2021/12/24 12:16:56;;;;;;;;;;;8.10;96.40;;;;;;4965974;28;19914;-69
2021/12/24 12:19:43;;;;;;;;;;;8.10;96.50;;;;;;4981288;28;19944;-69
2021/12/24 12:25:29;;;;;;;;;;;8.00;96.60;;;;;;4965766;28;19980;-69
2021/12/24 12:27:56;;;;;;;;;;;8.00;96.60;;;;;;4979791;28;19914;-69
2021/12/24 12:30:39;;;;;;;;;;;8.00;96.60;;;;;;4966068;28;20090;-70
2021/12/24 12:33:16;;;;;;;;;;;8.00;96.60;;;;;;4980908;28;19906;-69
2021/12/24 12:35:50;;;;;;;;;;;8.00;96.40;;;;;;4980725;28;19950;-69
2021/12/24 12:38:42;;;;;;;;;;;8.00;96.50;;;;;;4966623;28;20259;-69
2021/12/24 12:41:38;;;;;;;;;;;8.00;96.40;;;;;;4981033;28;20022;-69
2021/12/24 12:44:08;;;;;;;;;;;8.00;96.30;;;;;;4966716;28;20161;-69
2021/12/24 12:46:36;;;;;;;;;;;8.00;96.40;;;;;;4966565;28;19941;-69
2021/12/24 12:49:08;;;;;;;;;;;8.00;96.40;;;;;;4965968;28;19917;-69
2021/12/24 12:51:53;;;;;;;;;;;8.00;96.40;;;;;;4980688;28;19906;-69
2021/12/24 12:54:42;;;;;;;;;;;8.00;96.40;;;;;;4966014;28;19906;-69
2021/12/24 12:57:36;;;;;;;;;;;8.00;96.30;;;;;;4981575;28;19977;-69
2021/12/24 13:00:08;;;;;;;;;;;8.10;96.20;;;;;;4979023;28;20012;-69
2021/12/24 13:02:56;;;;;;;;;;;8.10;96.20;;;;;;4966514;28;19906;-70
2021/12/24 13:05:21;;;;;;;;;;;8.00;96.40;;;;;;4965695;28;20037;-70
2021/12/24 13:07:48;;;;;;;;;;;8.00;96.50;;;;;;4966278;28;19907;-70
2021/12/24 13:10:17;;;;;;;;;;;8.00;96.50;;;;;;4964856;28;19907;-70
2021/12/24 13:12:43;;;;;;;;;;;8.10;96.50;;;;;;4951638;28;19910;-70
2021/12/24 13:15:15;;;;;;;;;;;8.10;96.40;;;;;;4945721;29;19911;-70
2021/12/24 13:17:45;;;;;;;;;;;8.10;96.40;;;;;;4946879;29;19907;-70
2021/12/24 13:20:32;;;;;;;;;;;8.10;96.40;;;;;;4945484;29;20110;-70
2021/12/24 13:22:57;;;;;;;;;;;8.10;96.20;;;;;;4946658;29;19910;-70
2021/12/24 13:25:24;;;;;;;;;;;8.10;96.20;;;;;;4945238;29;19987;-70
2021/12/24 13:27:52;;;;;;;;;;;8.10;96.20;;;;;;4946675;29;20129;-70
2021/12/24 13:30:27;;;;;;;;;;;8.10;96.10;;;;;;4946863;28;20158;-70
2021/12/24 13:32:57;;;;;;;;;;;8.10;96.40;;;;;;4945935;28;19910;-70
2021/12/24 13:35:25;;;;;;;;;;;8.00;96.50;;;;;;4965516;28;20205;-70
2021/12/24 13:37:51;;;;;;;;;;;8.00;96.70;;;;;;4981122;28;19913;-70
2021/12/24 13:40:20;;;;;;;;;;;8.00;96.90;;;;;;4965788;28;19910;-70
2021/12/24 13:42:50;;;;;;;;;;;8.00;97.10;;;;;;4965436;28;19906;-70
2021/12/24 13:45:16;;;;;;;;;;;7.90;97.10;;;;;;4965162;28;19906;-70
2021/12/24 13:47:57;;;;;;;;;;;7.90;97.20;;;;;;4965522;28;19949;-70
2021/12/24 13:54:31;;;;;;;;;;;7.90;97.50;;;;;;4965296;28;19937;-70
2021/12/24 13:56:00;;;;;;;;;;;7.80;98.00;;;;;;4995835;28;20148;-77
2021/12/24 13:58:25;;;;;;;;;;;7.80;98.00;;;;;;4976277;28;19914;-69
2021/12/24 14:00:56;;;;;;;;;;;7.80;98.10;;;;;;4985454;28;19933;-71
2021/12/24 14:03:26;;;;;;;;;;;7.80;98.30;;;;;;4973551;28;20117;-73
2021/12/24 14:05:54;;;;;;;;;;;7.80;98.40;;;;;;4972714;28;19906;-73
2021/12/24 14:08:21;;;;;;;;;;;7.80;98.50;;;;;;4979528;28;19945;-74
2021/12/24 14:10:48;;;;;;;;;;;7.80;98.40;;;;;;4972242;28;20144;-74
2021/12/24 14:13:24;;;;;;;;;;;7.80;98.50;;;;;;4983901;28;20041;-74
2021/12/24 14:18:44;;;;;;;;;;;7.70;98.60;;;;;;4982569;28;19969;-74
2021/12/24 14:24:15;;;;;;;;;;;7.70;98.70;;;;;;4983630;28;19916;-72
2021/12/24 14:26:45;;;;;;;;;;;7.70;98.80;;;;;;4960160;28;19968;-72
2021/12/24 14:29:11;;;;;;;;;;;7.70;98.60;;;;;;4990987;28;19914;-72
2021/12/24 14:31:50;;;;;;;;;;;7.70;98.50;;;;;;4970637;28;19911;-72
2021/12/24 14:34:49;;;;;;;;;;;7.70;98.50;;;;;;4971505;28;19949;-72
2021/12/24 14:37:23;;;;;;;;;;;7.70;98.60;;;;;;4971934;28;19922;-72
2021/12/24 14:40:15;;;;;;;;;;;7.80;98.50;;;;;;4977218;28;19918;-72
2021/12/24 14:42:47;;;;;;;;;;;7.70;98.50;;;;;;4982938;28;19983;-74
2021/12/24 14:45:24;;;;;;;;;;;7.60;98.70;;;;;;4955666;28;19945;-71
2021/12/24 14:48:08;;;;;;;;;;;7.60;98.90;;;;;;4977672;28;19918;-73
2021/12/24 14:51:18;;;;;;;;;;;7.60;99.00;;;;;;4983944;28;19921;-73
2021/12/24 14:53:45;;;;;;;;;;;7.60;99.00;;;;;;4981426;28;19925;-72
2021/12/24 14:56:19;;;;;;;;;;;7.60;98.80;;;;;;4972216;28;19993;-73
2021/12/24 14:59:03;;;;;;;;;;;7.60;99.00;;;;;;4979381;28;20205;-74
2021/12/24 15:01:37;;;;;;;;;;;7.60;99.00;;;;;;4964919;28;19906;-73
2021/12/24 15:04:04;;;;;;;;;;;7.60;99.10;;;;;;4981291;28;19918;-72
2021/12/24 15:06:38;;;;;;;;;;;7.50;99.20;;;;;;4971875;28;19985;-72
2021/12/24 15:09:21;;;;;;;;;;;7.50;99.20;;;;;;4995129;28;20433;-72
2021/12/24 15:11:47;;;;;;;;;;;7.40;99.30;;;;;;4982513;28;19973;-70
2021/12/24 15:14:15;;;;;;;;;;;7.40;99.30;;;;;;4986282;28;19918;-69
2021/12/24 15:16:46;;;;;;;;;;;7.40;99.40;;;;;;4980723;28;19910;-69
2021/12/24 15:19:12;;;;;;;;;;;7.40;99.40;;;;;;4974823;28;19917;-69
2021/12/24 15:21:38;;;;;;;;;;;7.40;99.40;;;;;;4986965;28;19906;-70
2021/12/24 15:24:06;;;;;;;;;;;7.40;99.50;;;;;;4985795;28;19910;-69
2021/12/24 15:26:32;;;;;;;;;;;7.40;99.50;;;;;;4977301;28;19928;-69
2021/12/24 15:28:59;;;;;;;;;;;7.40;99.50;;;;;;4981014;28;20200;-69
2021/12/24 15:31:25;;;;;;;;;;;7.40;99.50;;;;;;4977230;28;20332;-69
2021/12/24 15:33:51;;;;;;;;;;;7.40;99.60;;;;;;5018222;28;20085;-69
2021/12/24 15:36:17;;;;;;;;;;;7.40;99.60;;;;;;4985664;28;19973;-69
2021/12/24 15:38:43;;;;;;;;;;;7.40;99.60;;;;;;4977772;28;19910;-68
2021/12/24 15:41:09;;;;;;;;;;;7.40;99.50;;;;;;4967084;28;20086;-69
2021/12/24 15:43:35;;;;;;;;;;;7.40;99.50;;;;;;4979393;28;19949;-70
2021/12/24 15:46:00;;;;;;;;;;;7.40;99.50;;;;;;4984757;28;19973;-70
2021/12/24 15:48:26;;;;;;;;;;;7.40;99.50;;;;;;4985028;28;19906;-69
2021/12/24 15:50:53;;;;;;;;;;;7.40;99.40;;;;;;4987190;28;20268;-69
2021/12/24 15:53:19;;;;;;;;;;;7.40;99.50;;;;;;4981677;28;19925;-69
2021/12/24 15:55:44;;;;;;;;;;;7.40;99.60;;;;;;4982333;28;19922;-69
2021/12/24 15:58:11;;;;;;;;;;;7.40;99.50;;;;;;4965334;28;19934;-70
2021/12/24 16:00:42;;;;;;;;;;;7.40;99.60;;;;;;5008723;28;20089;-69
2021/12/24 16:03:08;;;;;;;;;;;7.40;99.60;;;;;;5005018;28;19914;-70
2021/12/24 16:05:34;;;;;;;;;;;7.30;99.60;;;;;;4968912;28;20083;-69
2021/12/24 16:07:59;;;;;;;;;;;7.40;99.70;;;;;;4968030;28;20205;-70
2021/12/24 16:10:25;;;;;;;;;;;7.30;99.90;;;;;;4960506;28;19906;-70
2021/12/24 16:12:51;;;;;;;;;;;7.30;99.90;;;;;;4967088;28;20357;-70
2021/12/24 16:15:17;;;;;;;;;;;7.30;99.90;;;;;;4980671;28;19944;-70
2021/12/24 16:17:43;;;;;;;;;;;7.30;99.90;;;;;;4986274;28;19994;-70
2021/12/24 16:20:10;;;;;;;;;;;7.30;99.80;;;;;;4985784;28;20224;-71
2021/12/24 16:22:36;;;;;;;;;;;7.30;99.90;;;;;;4984751;28;19981;-70
2021/12/24 16:25:01;;;;;;;;;;;7.40;99.90;;;;;;4985774;28;19906;-70